createdAt,value
2024-01-24T06:05:10.383Z,90.78
2024-01-24T06:15:13.138Z,88.42
2024-01-24T06:25:15.758Z,87.13
2024-01-24T06:35:18.468Z,86.83
2024-01-24T06:45:21.627Z,87.63
2024-01-24T06:55:25.492Z,89.94
2024-01-24T07:05:28.688Z,89.73
2024-01-24T07:15:31.175Z,87.43
2024-01-24T07:25:33.546Z,86.99
2024-01-24T07:35:35.938Z,87.29
2024-01-24T07:45:38.413Z,87.51
2024-01-24T07:55:51.403Z,88.25
2024-01-24T08:05:58.819Z,88.03
2024-01-24T08:16:01.450Z,87.37
2024-01-24T08:26:04.021Z,85.86
2024-01-24T08:36:06.535Z,86.87
2024-01-24T08:46:08.980Z,87.25
2024-01-24T08:56:11.449Z,87.26
2024-01-24T09:06:14.084Z,87.86
2024-01-24T09:16:17.204Z,86.46
2024-01-24T09:26:19.805Z,85.47
2024-01-24T09:36:24.543Z,86.95
2024-01-24T09:46:29.809Z,88.92
2024-01-24T09:56:34.494Z,87.45
2024-01-24T10:06:41.238Z,88.04
2024-01-24T10:16:44.132Z,86.11
2024-01-24T10:26:46.766Z,85.13
2024-01-24T10:36:49.802Z,80.76
2024-01-24T10:46:52.832Z,79.70
2024-01-24T10:56:56.330Z,77.19
2024-01-24T11:07:03.993Z,75.74
2024-01-24T11:17:07.525Z,76.26
2024-01-24T11:27:26.774Z,74.79
2024-01-24T11:37:34.639Z,74.20
2024-01-24T11:47:37.068Z,72.46
2024-01-24T11:57:39.733Z,75.53
2024-01-24T12:07:42.146Z,79.43
2024-01-24T12:17:45.016Z,82.96
2024-01-24T12:27:47.681Z,81.61
2024-01-24T12:37:50.275Z,80.43
2024-01-24T12:47:54.068Z,79.84
2024-01-24T12:57:56.477Z,80.20
2024-01-24T13:07:59.141Z,78.11
2024-01-24T13:18:02.431Z,76.03
2024-01-24T13:28:05.580Z,76.09
2024-01-24T13:38:08.135Z,75.00
2024-01-24T13:48:10.835Z,71.68
2024-01-24T13:58:13.758Z,71.61
2024-01-24T14:17:27.871Z,71.52
2024-01-24T14:27:30.319Z,68.82
2024-01-24T14:37:33.680Z,68.29
2024-01-24T14:47:36.276Z,68.98
2024-01-24T14:57:39.394Z,69.59
2024-01-24T15:07:42.049Z,71.91
2024-01-24T15:17:45.135Z,69.75
2024-01-24T15:27:47.777Z,67.36
2024-01-24T15:37:50.128Z,67.06
2024-01-24T15:47:53.719Z,66.22
2024-01-24T15:57:56.262Z,66.52
2024-01-24T16:07:59.693Z,68.77
2024-01-24T16:18:02.215Z,67.05
2024-01-24T16:28:04.986Z,68.99
2024-01-24T16:38:07.389Z,67.28
2024-01-24T16:48:10.234Z,66.34
2024-01-24T16:58:14.075Z,65.43
2024-01-24T17:08:16.398Z,66.09
2024-01-24T17:18:20.394Z,66.43
2024-01-24T17:28:22.950Z,66.51
2024-01-24T17:38:25.332Z,67.00
2024-01-24T17:48:27.939Z,66.34
2024-01-24T17:58:32.378Z,65.80
2024-01-24T18:08:35.154Z,65.29
2024-01-24T18:18:38.407Z,65.52
2024-01-24T18:28:41.043Z,65.53
2024-01-24T18:38:44.591Z,66.59
2024-01-24T18:48:47.286Z,67.71
2024-01-24T18:58:49.888Z,66.62
2024-01-24T19:08:52.422Z,65.49
2024-01-24T19:18:54.981Z,66.27
2024-01-24T19:28:57.444Z,66.37
2024-01-24T19:39:00.021Z,68.50
2024-01-24T19:49:02.647Z,69.10
2024-01-24T19:59:05.251Z,68.00
2024-01-24T20:09:08.042Z,67.15
2024-01-24T20:19:10.562Z,65.74
2024-01-24T20:29:13.485Z,65.23
2024-01-24T20:39:18.762Z,64.97
2024-01-24T20:49:21.289Z,65.12
2024-01-24T20:59:25.580Z,65.58
2024-01-24T21:10:11.011Z,67.61
2024-01-24T21:20:13.827Z,66.95
2024-01-24T21:30:16.456Z,66.30
2024-01-24T21:40:19.012Z,65.86
2024-01-24T21:50:21.603Z,65.81
2024-01-24T22:00:24.056Z,65.85
2024-01-24T22:10:26.674Z,64.52
2024-01-24T22:20:29.159Z,64.07
2024-01-24T22:30:31.750Z,64.51
2024-01-24T22:40:34.367Z,64.55
2024-01-24T22:50:36.930Z,63.79
2024-01-24T23:00:39.509Z,63.30
2024-01-24T23:10:41.946Z,64.58
